Aviation Digital Data Service (ADDS)

Output produced by METARs form (1159 UTC 22 March 2019)
found at http://www.aviationweather.gov/metar/data/
 
Forecast for: WMKM (MALACCA , MY)
Text: TAF WMKM 221100Z 2212/2312 VRB03KT 9999 FEW018
Forecast period: 1200 UTC 22 March 2019 to 0100 UTC 23 March 2019
Forecast type: FROM: standard forecast or significant change
Winds: variable direction winds at 3 MPH (3 knots; 1.5 m/s)
Visibility: 6 or more miles 10+ km)
Ceiling: at least 12,000 feet AGL
Clouds: few clouds at 1800 feet AGL
Weather: no significant weather forecast for this period
Text: BECMG 2301/2303 03005KT FEW020
Forecast period: 0100 to 1200 UTC 23 March 2019
Forecast type: BECOMING: Conditions expected to become as follows by 0300 UTC 23 March 2019
Winds: from the NNE (30 degrees) at 6 MPH (5 knots; 2.6 m/s)
Visibility: 6 or more miles 10+ km)
Ceiling: at least 12,000 feet AGL
Clouds: few clouds at 2000 feet AGL
Weather: no significant weather forecast for this period